White Star — ZCNP2 — position and weather

sailwx.info

Track history (hours):
 
Tides and Currents Weather Stations Pressure Air Temp Water Temp Dewpoint Dewpoint Depression Visibility Wind Speed Wind Dir Waves Ship Positions

White Star

Last reported at 2017-Aug-19 19:19 UTC. Time now 2017-Aug-21 11:45 UTC.
Position N 40°34' E 014°12'.

Length 49 m; draft 2.6 m.

Type: Pleasure craft. MMSI: 319035000.

Date/timePositionNaut miles runAvg speedWind from/ knotsBaromVisibWave heightAir tempDewpointWater temp
2017-Aug-19 19:19N 40°34' E 014°12'2 6.5
2017-Aug-19 18:59N 40°32' E 014°14'0 0.4
2017-Aug-19 18:09N 40°32' E 014°14'0 0.0
2017-Aug-19 17:42N 40°32' E 014°14'0 0.0
2017-Aug-19 14:00N 40°32' E 014°14'0 0.0
2017-Aug-19 13:30N 40°32' E 014°14'0 0.0
2017-Aug-19 12:54N 40°32' E 014°14'0 0.0
2017-Aug-19 12:28N 40°32' E 014°14'7 9.1
2017-Aug-19 11:44N 40°38' E 014°20'3 7.5
2017-Aug-19 11:23N 40°38' E 014°23'0 0.0
2017-Aug-19 10:53N 40°38' E 014°23'0 0.0
2017-Aug-19 10:20N 40°38' E 014°23'0 0.0
2017-Aug-19 09:53N 40°38' E 014°23'0 0.0
2017-Aug-19 09:23N 40°38' E 014°23'0 0.0
2017-Aug-19 08:53N 40°38' E 014°23'0 0.0
2017-Aug-19 08:20N 40°38' E 014°23'0 0.1
2017-Aug-19 07:56N 40°38' E 014°23'0 0.0
2017-Aug-19 07:26N 40°38' E 014°23'0 0.0
2017-Aug-19 06:56N 40°38' E 014°23'0 0.0
2017-Aug-19 06:26N 40°38' E 014°23'0 0.0
2017-Aug-19 05:56N 40°38' E 014°23'0 0.0
2017-Aug-19 05:29N 40°38' E 014°23'0 0.0
2017-Aug-18 21:29N 40°38' E 014°23'0 0.0
2017-Aug-18 20:53N 40°38' E 014°23'0 0.0
2017-Aug-18 20:29N 40°38' E 014°23'0 0.0
2017-Aug-18 19:53N 40°38' E 014°23'0 0.0
2017-Aug-18 19:23N 40°38' E 014°23'0 0.0
2017-Aug-18 18:50N 40°38' E 014°23'0 0.0
2017-Aug-18 18:23N 40°38' E 014°23'0 0.0
2017-Aug-18 17:56N 40°38' E 014°23'0 0.0
2017-Aug-18 17:26N 40°38' E 014°23'0 0.0
2017-Aug-18 16:56N 40°38' E 014°23'0 0.0
2017-Aug-18 16:26N 40°38' E 014°23'0 0.0
2017-Aug-18 15:56N 40°38' E 014°23'0 0.0
2017-Aug-18 15:26N 40°38' E 014°23'0 0.0
2017-Aug-18 14:56N 40°38' E 014°23'0 0.0
2017-Aug-18 14:29N 40°38' E 014°23'0 0.0
2017-Aug-18 13:29N 40°38' E 014°23'0 0.0
2017-Aug-18 12:59N 40°38' E 014°23'0 0.0
2017-Aug-18 12:29N 40°38' E 014°23'0 0.0
2017-Aug-18 11:59N 40°38' E 014°23'0 0.0
2017-Aug-18 11:29N 40°38' E 014°23'0 0.1
2017-Aug-18 11:00N 40°38' E 014°23'5 8.9
2017-Aug-18 10:26N 40°35' E 014°18'4 8.7
2017-Aug-18 09:58N 40°32' E 014°14'0 0.0
2017-Aug-18 09:28N 40°32' E 014°14'0 0.0
2017-Aug-18 08:55N 40°32' E 014°14'0 0.0
2017-Aug-18 08:28N 40°32' E 014°14'0 0.0
2017-Aug-18 07:58N 40°32' E 014°14'0 0.0
2017-Aug-18 07:28N 40°32' E 014°14'0 0.0
2017-Aug-18 06:58N 40°32' E 014°14'0 0.1
2017-Aug-18 06:28N 40°32' E 014°14'0 0.0
2017-Aug-18 05:58N 40°32' E 014°14'0 0.0
2017-Aug-18 05:28N 40°32' E 014°14'0 0.0
2017-Aug-18 04:58N 40°32' E 014°14'0 0.0
2017-Aug-18 04:28N 40°32' E 014°14'0 0.0
2017-Aug-18 02:16N 40°32' E 014°14'0 0.0
2017-Aug-18 01:58N 40°32' E 014°14'0 0.0
2017-Aug-18 01:30N 40°32' E 014°14'0 0.0
2017-Aug-18 00:58N 40°32' E 014°14'0 0.0
2017-Aug-18 00:19N 40°32' E 014°14'0 0.0
2017-Aug-17 23:52N 40°32' E 014°14'0 0.0
2017-Aug-17 23:27N 40°32' E 014°14'0 0.0
2017-Aug-17 22:28N 40°32' E 014°14'0 0.0
2017-Aug-17 19:16N 40°32' E 014°14'0 0.1
2017-Aug-17 18:55N 40°32' E 014°14'0 0.0
2017-Aug-17 18:31N 40°32' E 014°14'0 0.1
2017-Aug-17 18:01N 40°32' E 014°14'0 0.0
2017-Aug-17 17:19N 40°32' E 014°14'0 0.1
2017-Aug-17 17:00N 40°32' E 014°14'0 0.0
2017-Aug-17 16:28N 40°32' E 014°14'0 0.0
2017-Aug-17 15:55N 40°32' E 014°14'0 0.0
2017-Aug-17 15:13N 40°32' E 014°14'0 0.1
2017-Aug-17 15:01N 40°32' E 014°14'0 0.0
2017-Aug-17 13:25N 40°32' E 014°14'0 0.0
2017-Aug-17 11:33N 40°32' E 014°14'0 0.0
2017-Aug-17 11:30N 40°32' E 014°14'0 0.0
2017-Aug-17 11:00N 40°32' E 014°14'0 0.0
2017-Aug-17 10:27N 40°32' E 014°14'0 0.0
2017-Aug-17 10:00N 40°32' E 014°14'0 0.0
2017-Aug-17 09:30N 40°32' E 014°14'0 0.0
2017-Aug-17 09:00N 40°32' E 014°14'0 0.0
2017-Aug-17 08:30N 40°32' E 014°14'0 0.0
2017-Aug-17 06:54N 40°32' E 014°14'0 0.0
2017-Aug-17 06:24N 40°32' E 014°14'0 0.1
2017-Aug-17 06:00N 40°32' E 014°14'0 0.1
2017-Aug-17 05:30N 40°32' E 014°14'0 0.0
2017-Aug-17 04:24N 40°32' E 014°14'0 0.0
2017-Aug-17 03:51N 40°32' E 014°14'0 0.1
2017-Aug-17 03:24N 40°32' E 014°14'0 0.0
2017-Aug-17 02:39N 40°32' E 014°14'30 2.8
2017-Aug-16 16:11N 40°46' E 013°39'315.0
2017-Aug-16 16:00N 40°47' E 013°36'  
Track history (hours):
 
Tides and Currents Weather Stations Pressure Air Temp Water Temp Dewpoint Dewpoint Depression Visibility Wind Speed Wind Dir Waves Ship Positions

White Star

Last reported at 2017-Aug-19 19:19 UTC. Time now 2017-Aug-21 11:45 UTC.
Position N 40°34' E 014°12'.

Length 49 m; draft 2.6 m.

Type: Pleasure craft. MMSI: 319035000.

Date/timePositionNaut miles runAvg speedWind from/ knotsBaromVisibWave heightAir tempDewpointWater temp
2017-Aug-19 19:19N 40°34' E 014°12'2 6.5
2017-Aug-19 18:59N 40°32' E 014°14'0 0.4
2017-Aug-19 18:09N 40°32' E 014°14'0 0.0
2017-Aug-19 17:42N 40°32' E 014°14'0 0.0
2017-Aug-19 14:00N 40°32' E 014°14'0 0.0
2017-Aug-19 13:30N 40°32' E 014°14'0 0.0
2017-Aug-19 12:54N 40°32' E 014°14'0 0.0
2017-Aug-19 12:28N 40°32' E 014°14'7 9.1
2017-Aug-19 11:44N 40°38' E 014°20'3 7.5
2017-Aug-19 11:23N 40°38' E 014°23'0 0.0
2017-Aug-19 10:53N 40°38' E 014°23'0 0.0
2017-Aug-19 10:20N 40°38' E 014°23'0 0.0
2017-Aug-19 09:53N 40°38' E 014°23'0 0.0
2017-Aug-19 09:23N 40°38' E 014°23'0 0.0
2017-Aug-19 08:53N 40°38' E 014°23'0 0.0
2017-Aug-19 08:20N 40°38' E 014°23'0 0.1
2017-Aug-19 07:56N 40°38' E 014°23'0 0.0
2017-Aug-19 07:26N 40°38' E 014°23'0 0.0
2017-Aug-19 06:56N 40°38' E 014°23'0 0.0
2017-Aug-19 06:26N 40°38' E 014°23'0 0.0
2017-Aug-19 05:56N 40°38' E 014°23'0 0.0
2017-Aug-19 05:29N 40°38' E 014°23'0 0.0
2017-Aug-18 21:29N 40°38' E 014°23'0 0.0
2017-Aug-18 20:53N 40°38' E 014°23'0 0.0
2017-Aug-18 20:29N 40°38' E 014°23'0 0.0
2017-Aug-18 19:53N 40°38' E 014°23'0 0.0
2017-Aug-18 19:23N 40°38' E 014°23'0 0.0
2017-Aug-18 18:50N 40°38' E 014°23'0 0.0
2017-Aug-18 18:23N 40°38' E 014°23'0 0.0
2017-Aug-18 17:56N 40°38' E 014°23'0 0.0
2017-Aug-18 17:26N 40°38' E 014°23'0 0.0
2017-Aug-18 16:56N 40°38' E 014°23'0 0.0
2017-Aug-18 16:26N 40°38' E 014°23'0 0.0
2017-Aug-18 15:56N 40°38' E 014°23'0 0.0
2017-Aug-18 15:26N 40°38' E 014°23'0 0.0
2017-Aug-18 14:56N 40°38' E 014°23'0 0.0
2017-Aug-18 14:29N 40°38' E 014°23'0 0.0
2017-Aug-18 13:29N 40°38' E 014°23'0 0.0
2017-Aug-18 12:59N 40°38' E 014°23'0 0.0
2017-Aug-18 12:29N 40°38' E 014°23'0 0.0
2017-Aug-18 11:59N 40°38' E 014°23'0 0.0
2017-Aug-18 11:29N 40°38' E 014°23'0 0.1
2017-Aug-18 11:00N 40°38' E 014°23'5 8.9
2017-Aug-18 10:26N 40°35' E 014°18'4 8.7
2017-Aug-18 09:58N 40°32' E 014°14'0 0.0
2017-Aug-18 09:28N 40°32' E 014°14'0 0.0
2017-Aug-18 08:55N 40°32' E 014°14'0 0.0
2017-Aug-18 08:28N 40°32' E 014°14'0 0.0
2017-Aug-18 07:58N 40°32' E 014°14'0 0.0
2017-Aug-18 07:28N 40°32' E 014°14'0 0.0
2017-Aug-18 06:58N 40°32' E 014°14'0 0.1
2017-Aug-18 06:28N 40°32' E 014°14'0 0.0
2017-Aug-18 05:58N 40°32' E 014°14'0 0.0
2017-Aug-18 05:28N 40°32' E 014°14'0 0.0
2017-Aug-18 04:58N 40°32' E 014°14'0 0.0
2017-Aug-18 04:28N 40°32' E 014°14'0 0.0
2017-Aug-18 02:16N 40°32' E 014°14'0 0.0
2017-Aug-18 01:58N 40°32' E 014°14'0 0.0
2017-Aug-18 01:30N 40°32' E 014°14'0 0.0
2017-Aug-18 00:58N 40°32' E 014°14'0 0.0
2017-Aug-18 00:19N 40°32' E 014°14'0 0.0
2017-Aug-17 23:52N 40°32' E 014°14'0 0.0
2017-Aug-17 23:27N 40°32' E 014°14'0 0.0
2017-Aug-17 22:28N 40°32' E 014°14'0 0.0
2017-Aug-17 19:16N 40°32' E 014°14'0 0.1
2017-Aug-17 18:55N 40°32' E 014°14'0 0.0
2017-Aug-17 18:31N 40°32' E 014°14'0 0.1
2017-Aug-17 18:01N 40°32' E 014°14'0 0.0
2017-Aug-17 17:19N 40°32' E 014°14'0 0.1
2017-Aug-17 17:00N 40°32' E 014°14'0 0.0
2017-Aug-17 16:28N 40°32' E 014°14'0 0.0
2017-Aug-17 15:55N 40°32' E 014°14'0 0.0
2017-Aug-17 15:13N 40°32' E 014°14'0 0.1
2017-Aug-17 15:01N 40°32' E 014°14'0 0.0
2017-Aug-17 13:25N 40°32' E 014°14'0 0.0
2017-Aug-17 11:33N 40°32' E 014°14'0 0.0
2017-Aug-17 11:30N 40°32' E 014°14'0 0.0
2017-Aug-17 11:00N 40°32' E 014°14'0 0.0
2017-Aug-17 10:27N 40°32' E 014°14'0 0.0
2017-Aug-17 10:00N 40°32' E 014°14'0 0.0
2017-Aug-17 09:30N 40°32' E 014°14'0 0.0
2017-Aug-17 09:00N 40°32' E 014°14'0 0.0
2017-Aug-17 08:30N 40°32' E 014°14'0 0.0
2017-Aug-17 06:54N 40°32' E 014°14'0 0.0
2017-Aug-17 06:24N 40°32' E 014°14'0 0.1
2017-Aug-17 06:00N 40°32' E 014°14'0 0.1
2017-Aug-17 05:30N 40°32' E 014°14'0 0.0
2017-Aug-17 04:24N 40°32' E 014°14'0 0.0
2017-Aug-17 03:51N 40°32' E 014°14'0 0.1
2017-Aug-17 03:24N 40°32' E 014°14'0 0.0
2017-Aug-17 02:39N 40°32' E 014°14'30 2.8
2017-Aug-16 16:11N 40°46' E 013°39'315.0
2017-Aug-16 16:00N 40°47' E 013°36'  

Dump ship's entire track history